createdAt,value
2018-06-14T00:01:47.508Z,32.70
2018-06-14T00:04:21.578Z,32.70
2018-06-14T00:06:57.676Z,32.70
2018-06-14T00:09:31.762Z,32.70
2018-06-14T00:12:05.710Z,32.70
2018-06-14T00:19:44.713Z,32.80
2018-06-14T00:24:51.040Z,32.80
2018-06-14T00:51:36.914Z,32.80
2018-06-14T00:54:10.824Z,32.80
2018-06-14T00:57:52.419Z,32.10
2018-06-14T01:00:25.925Z,32.10
2018-06-14T01:03:00.100Z,32.20
2018-06-14T01:05:33.948Z,32.30
2018-06-14T01:08:08.482Z,32.30
2018-06-14T01:13:16.192Z,32.60
2018-06-14T01:15:50.181Z,32.70
2018-06-14T01:18:24.551Z,32.70
2018-06-14T01:20:59.190Z,32.80
2018-06-14T01:23:35.082Z,32.90
2018-06-14T01:26:09.218Z,33.00
2018-06-14T01:28:43.433Z,33.10
2018-06-14T01:31:17.484Z,33.20
2018-06-14T01:33:52.065Z,33.20
2018-06-14T01:36:26.204Z,33.30
2018-06-14T01:39:01.824Z,33.30
2018-06-14T01:41:36.619Z,33.30
2018-06-14T01:44:13.238Z,33.40
2018-06-14T01:46:47.596Z,33.40
2018-06-14T01:49:21.517Z,33.50
2018-06-14T01:54:29.979Z,33.50
2018-06-14T01:57:04.671Z,33.60
2018-06-14T01:59:38.543Z,33.60
2018-06-14T02:02:14.557Z,33.60
2018-06-14T02:04:48.557Z,33.70
2018-06-14T02:07:22.533Z,33.70
2018-06-14T02:09:56.565Z,33.80
2018-06-14T02:15:03.624Z,33.90
2018-06-14T02:20:09.908Z,34.00
2018-06-14T02:22:43.631Z,34.00
2018-06-14T02:25:18.756Z,34.10
2018-06-14T02:27:52.892Z,34.10
2018-06-14T02:30:26.585Z,34.10
2018-06-14T02:33:02.466Z,34.20
2018-06-14T02:35:38.084Z,34.20
2018-06-14T02:38:12.237Z,34.30
2018-06-14T02:40:47.999Z,34.30
2018-06-14T02:43:23.098Z,34.30
2018-06-14T02:45:57.154Z,34.40
2018-06-14T02:48:31.190Z,34.40
2018-06-14T02:51:05.035Z,34.50
2018-06-14T02:53:40.812Z,34.50
2018-06-14T02:56:14.364Z,34.60
2018-06-14T02:58:48.257Z,34.60
2018-06-14T03:20:39.859Z,34.60
2018-06-14T03:25:46.323Z,35.10
2018-06-14T03:30:53.075Z,35.40
2018-06-14T03:33:27.338Z,35.50
2018-06-14T03:36:01.291Z,35.60
2018-06-14T03:38:35.546Z,35.80
2018-06-14T03:41:09.711Z,36.00
2018-06-14T03:43:44.168Z,36.20
2018-06-14T03:46:18.322Z,36.40
2018-06-14T03:48:52.522Z,36.60
2018-06-14T03:51:26.716Z,36.70
2018-06-14T03:54:00.983Z,36.80
2018-06-14T04:01:40.324Z,37.30
2018-06-14T04:04:14.246Z,37.40
2018-06-14T04:06:48.299Z,37.50
2018-06-14T04:09:22.103Z,37.60
2018-06-14T04:11:56.481Z,37.80
2018-06-14T04:14:30.944Z,37.80
2018-06-14T04:17:05.156Z,37.80
2018-06-14T04:19:39.358Z,37.90
2018-06-14T04:27:20.723Z,37.80
2018-06-14T04:29:54.499Z,37.80
2018-06-14T04:32:28.308Z,37.80
2018-06-14T04:35:04.583Z,37.80
2018-06-14T04:37:38.660Z,37.90
2018-06-14T04:45:17.380Z,38.00
2018-06-14T04:47:51.395Z,38.00
2018-06-14T04:50:25.208Z,38.10
2018-06-14T04:52:59.460Z,38.10
2018-06-14T04:55:33.537Z,38.10
2018-06-14T04:58:09.386Z,38.20
2018-06-14T05:00:43.558Z,38.20
2018-06-14T05:03:18.389Z,38.30
2018-06-14T05:05:52.400Z,38.30
2018-06-14T05:08:26.272Z,38.30
2018-06-14T05:11:00.549Z,38.40
2018-06-14T05:13:34.208Z,38.40
2018-06-14T05:16:09.061Z,38.40
2018-06-14T05:18:43.052Z,38.50
2018-06-14T05:21:17.269Z,38.50
2018-06-14T05:23:53.534Z,38.50
2018-06-14T05:26:27.456Z,38.50
2018-06-14T05:29:04.900Z,38.60
2018-06-14T05:34:11.488Z,38.70
2018-06-14T05:39:17.982Z,38.70
2018-06-14T05:41:51.833Z,38.70
2018-06-14T05:44:26.797Z,38.80
2018-06-14T05:47:00.577Z,38.80
2018-06-14T05:49:34.930Z,38.80
2018-06-14T05:52:09.205Z,38.80
2018-06-14T05:54:44.992Z,38.80
2018-06-14T05:57:19.154Z,38.80
2018-06-14T06:05:00.828Z,39.00
2018-06-14T06:07:34.666Z,39.00
2018-06-14T06:10:12.333Z,39.00
2018-06-14T06:12:46.295Z,39.00
2018-06-14T06:15:21.114Z,39.10
2018-06-14T06:20:28.856Z,39.10
2018-06-14T06:23:03.136Z,39.20
2018-06-14T06:25:38.085Z,39.20
2018-06-14T06:28:11.811Z,39.20
2018-06-14T06:33:21.611Z,39.20
2018-06-14T06:35:56.473Z,39.20
2018-06-14T06:38:31.165Z,39.20
2018-06-14T06:41:05.676Z,39.20
2018-06-14T06:43:40.667Z,39.20
2018-06-14T06:48:47.047Z,39.20
2018-06-14T06:51:22.333Z,39.30
2018-06-14T06:53:58.536Z,39.30
2018-06-14T06:56:32.636Z,39.30
2018-06-14T06:59:06.771Z,39.40
2018-06-14T07:04:15.237Z,39.40
2018-06-14T07:06:48.893Z,39.30
2018-06-14T07:09:23.376Z,39.30
2018-06-14T07:11:58.042Z,39.20
2018-06-14T07:17:06.490Z,39.20
2018-06-14T07:19:41.148Z,39.20
2018-06-14T07:24:47.805Z,39.10
2018-06-14T07:27:22.448Z,39.10
2018-06-14T07:29:57.455Z,39.10
2018-06-14T07:53:23.339Z,38.30
2018-06-14T07:55:57.249Z,37.90
2018-06-14T07:58:32.234Z,37.90
2018-06-14T08:01:06.115Z,38.00
2018-06-14T08:03:41.403Z,38.10
2018-06-14T08:06:17.124Z,38.10
2018-06-14T08:11:55.781Z,38.10
2018-06-14T08:14:30.308Z,38.10
2018-06-14T08:17:05.989Z,38.10
2018-06-14T08:19:43.159Z,38.10
2018-06-14T08:22:17.505Z,38.10
2018-06-14T08:24:55.233Z,38.20
2018-06-14T08:27:29.484Z,38.20
2018-06-14T08:30:07.295Z,38.30
2018-06-14T08:35:15.302Z,38.30
2018-06-14T08:37:48.654Z,38.40
2018-06-14T08:40:23.345Z,38.40
2018-06-14T08:42:58.470Z,38.40
2018-06-14T08:45:32.208Z,38.50
2018-06-14T08:48:06.685Z,38.50
2018-06-14T08:50:40.482Z,38.60
2018-06-14T08:53:14.310Z,38.60
2018-06-14T08:55:48.217Z,38.60
2018-06-14T08:58:22.619Z,38.70
2018-06-14T09:00:57.093Z,38.60
2018-06-14T09:03:31.155Z,38.60
2018-06-14T09:06:06.303Z,38.60
2018-06-14T09:08:40.240Z,38.70
2018-06-14T09:11:16.181Z,38.60
2018-06-14T09:13:50.222Z,38.60
2018-06-14T09:16:24.179Z,38.70
2018-06-14T09:18:59.847Z,38.60
2018-06-14T09:24:05.896Z,38.60
2018-06-14T09:26:41.098Z,38.50
2018-06-14T09:29:15.468Z,38.60
2018-06-14T09:31:49.540Z,38.50
2018-06-14T09:34:23.607Z,38.50
2018-06-14T09:36:58.340Z,38.40
2018-06-14T09:39:32.296Z,38.40
2018-06-14T09:42:06.419Z,38.30
2018-06-14T09:44:40.210Z,38.30
2018-06-14T09:47:13.465Z,38.20
2018-06-14T09:49:47.765Z,38.30
2018-06-14T09:54:54.556Z,38.20
2018-06-14T09:57:28.522Z,38.20
2018-06-14T10:00:02.301Z,38.20
2018-06-14T10:02:36.334Z,38.20
2018-06-14T10:05:10.405Z,38.20
2018-06-14T10:12:49.995Z,38.10
2018-06-14T10:15:23.484Z,38.00
2018-06-14T10:20:30.476Z,38.00
2018-06-14T10:23:04.319Z,38.00
2018-06-14T10:25:38.782Z,37.90
2018-06-14T10:28:13.184Z,37.90
2018-06-14T10:30:47.087Z,37.80
2018-06-14T10:33:21.393Z,37.70
2018-06-14T10:35:54.992Z,37.60
2018-06-14T10:38:29.170Z,37.50
2018-06-14T10:41:02.998Z,37.50
2018-06-14T10:46:09.816Z,37.30
2018-06-14T10:48:43.717Z,37.20
2018-06-14T10:51:17.542Z,37.20
2018-06-14T10:53:51.836Z,37.20
2018-06-14T10:56:27.248Z,37.20
2018-06-14T10:59:01.361Z,37.10
2018-06-14T11:01:35.119Z,37.10
2018-06-14T11:04:09.288Z,37.10
2018-06-14T11:09:17.573Z,37.10
2018-06-14T11:11:51.850Z,37.10
2018-06-14T11:14:26.187Z,37.10
2018-06-14T11:16:59.959Z,37.00
2018-06-14T11:19:35.370Z,37.10
2018-06-14T11:22:09.791Z,37.00
2018-06-14T11:47:13.566Z,37.00
2018-06-14T11:49:47.461Z,36.90
2018-06-14T11:52:21.743Z,35.40
2018-06-14T11:54:55.687Z,35.30
2018-06-14T11:57:29.763Z,35.30
2018-06-14T12:02:35.991Z,35.30
2018-06-14T12:05:10.041Z,35.30
2018-06-14T12:07:44.389Z,35.30
2018-06-14T12:10:19.243Z,35.40
2018-06-14T12:12:54.191Z,35.30
2018-06-14T12:15:28.203Z,35.30
2018-06-14T12:18:02.142Z,35.30
2018-06-14T12:20:36.760Z,35.30
2018-06-14T12:23:11.288Z,35.40
2018-06-14T12:25:45.440Z,35.40
2018-06-14T12:28:19.374Z,35.30
2018-06-14T12:30:54.308Z,35.30
2018-06-14T12:33:28.728Z,35.30
2018-06-14T12:36:02.893Z,35.30
2018-06-14T12:38:36.994Z,35.30
2018-06-14T12:41:11.214Z,35.30
2018-06-14T12:43:45.208Z,35.20
2018-06-14T12:46:19.855Z,35.20
2018-06-14T12:48:53.939Z,35.20
2018-06-14T12:51:28.402Z,35.20
2018-06-14T12:54:02.100Z,35.10
2018-06-14T12:56:36.519Z,35.10
2018-06-14T12:59:11.614Z,35.00
2018-06-14T13:01:49.521Z,35.00
2018-06-14T13:04:23.847Z,35.00
2018-06-14T13:06:59.732Z,35.00
2018-06-14T13:09:33.994Z,35.00
2018-06-14T13:12:10.101Z,35.00
2018-06-14T13:17:17.055Z,34.90
2018-06-14T13:19:51.276Z,34.90
2018-06-14T13:22:26.180Z,34.80
2018-06-14T13:27:32.853Z,34.80
2018-06-14T13:30:07.158Z,34.80
2018-06-14T13:32:41.275Z,34.80
2018-06-14T13:35:15.011Z,34.80
2018-06-14T13:37:49.894Z,34.80
2018-06-14T13:40:26.714Z,34.80
2018-06-14T13:43:01.028Z,34.80
2018-06-14T13:45:35.128Z,34.80
2018-06-14T13:50:43.334Z,34.80
2018-06-14T13:53:18.105Z,34.80
2018-06-14T13:55:52.242Z,34.80
2018-06-14T13:58:26.614Z,34.80
2018-06-14T14:03:34.147Z,34.80
2018-06-14T14:08:40.418Z,34.80
2018-06-14T14:46:19.025Z,34.80
2018-06-14T14:48:52.967Z,34.80
2018-06-14T14:51:27.071Z,33.70
2018-06-14T14:54:01.569Z,33.60
2018-06-14T14:59:09.403Z,33.80
2018-06-14T15:01:43.019Z,33.80
2018-06-14T15:04:17.054Z,34.00
2018-06-14T15:06:51.993Z,34.00
2018-06-14T15:47:13.433Z,34.10
2018-06-14T15:49:47.546Z,34.10
2018-06-14T15:52:21.670Z,33.10
2018-06-14T15:55:04.450Z,33.10
2018-06-14T15:57:38.560Z,33.10
2018-06-14T16:00:15.531Z,33.20
2018-06-14T16:02:49.628Z,33.30
2018-06-14T16:05:23.794Z,33.40
2018-06-14T16:07:57.934Z,33.40
2018-06-14T16:10:31.992Z,33.50
2018-06-14T16:13:06.088Z,33.60
2018-06-14T16:15:40.159Z,33.60
2018-06-14T16:18:14.274Z,33.70
2018-06-14T16:23:21.387Z,33.70
2018-06-14T16:25:56.589Z,33.80
2018-06-14T16:28:31.793Z,33.80
2018-06-14T16:33:38.554Z,33.80
2018-06-14T16:36:12.562Z,33.80
2018-06-14T16:38:46.363Z,33.80
2018-06-14T16:41:23.447Z,33.80
2018-06-14T16:43:57.050Z,33.70
2018-06-14T16:49:03.655Z,33.70
2018-06-14T16:51:37.384Z,33.80
2018-06-14T16:54:12.428Z,33.70
2018-06-14T16:56:46.227Z,33.80
2018-06-14T16:59:21.147Z,33.70
2018-06-14T17:01:54.974Z,33.80
2018-06-14T17:04:28.982Z,33.80
2018-06-14T17:07:03.609Z,33.80
2018-06-14T17:09:37.955Z,33.80
2018-06-14T17:12:11.802Z,33.80
2018-06-14T17:14:46.176Z,33.80
2018-06-14T17:17:23.442Z,33.80
2018-06-14T17:19:57.357Z,33.80
2018-06-14T17:22:31.125Z,33.80
2018-06-14T17:25:05.479Z,33.80
2018-06-14T17:27:40.683Z,33.80
2018-06-14T17:30:14.519Z,33.80
2018-06-14T17:32:49.506Z,33.80
2018-06-14T17:35:23.911Z,33.80
2018-06-14T17:37:58.484Z,33.80
2018-06-14T17:40:32.340Z,33.80
2018-06-14T17:43:06.480Z,33.80
2018-06-14T17:45:44.095Z,33.80
2018-06-14T17:48:20.572Z,33.80
2018-06-14T17:50:54.531Z,33.80
2018-06-14T17:56:01.269Z,33.70
2018-06-14T17:58:35.666Z,33.70
2018-06-14T18:01:09.721Z,33.70
2018-06-14T18:03:44.097Z,33.70
2018-06-14T18:06:18.059Z,33.70
2018-06-14T18:08:53.195Z,33.60
2018-06-14T18:11:27.626Z,33.60
2018-06-14T18:14:01.763Z,33.60
2018-06-14T18:21:42.210Z,33.50
2018-06-14T18:24:16.216Z,33.50
2018-06-14T18:26:51.220Z,33.40
2018-06-14T18:29:27.380Z,33.40
2018-06-14T18:32:01.459Z,33.40
2018-06-14T18:34:35.673Z,33.30
2018-06-14T18:37:09.683Z,33.30
2018-06-14T18:39:44.382Z,33.30
2018-06-14T18:42:18.266Z,33.30
2018-06-14T18:44:52.436Z,33.30
2018-06-14T18:47:27.072Z,33.30
2018-06-14T18:50:01.259Z,33.20
2018-06-14T18:52:35.146Z,33.20
2018-06-14T18:55:09.532Z,33.20
2018-06-14T18:57:44.332Z,33.20
2018-06-14T19:02:51.957Z,33.20
2018-06-14T19:07:58.353Z,33.10
2018-06-14T19:10:32.382Z,33.20
2018-06-14T19:13:06.014Z,33.10
2018-06-14T19:15:40.050Z,33.10
2018-06-14T19:18:13.780Z,33.10
2018-06-14T19:20:47.771Z,33.10
2018-06-14T19:23:21.751Z,33.10
2018-06-14T19:25:55.541Z,33.10
2018-06-14T19:28:29.503Z,33.10
2018-06-14T19:31:04.333Z,33.00
2018-06-14T19:33:39.439Z,33.00
2018-06-14T19:36:13.109Z,33.00
2018-06-14T19:38:46.877Z,33.00
2018-06-14T19:43:53.145Z,32.90
2018-06-14T19:46:27.326Z,32.90
2018-06-14T19:49:01.093Z,32.90
2018-06-14T19:51:35.168Z,32.80
2018-06-14T19:54:09.143Z,32.90
2018-06-14T19:56:42.919Z,32.80
2018-06-14T19:59:16.929Z,32.80
2018-06-14T20:01:50.983Z,32.80
2018-06-14T20:04:24.997Z,32.80
2018-06-14T20:06:58.886Z,32.70
2018-06-14T20:09:33.053Z,32.70
2018-06-14T20:12:06.897Z,32.60
2018-06-14T20:14:40.629Z,32.70
2018-06-14T20:17:14.730Z,32.60
2018-06-14T20:19:50.043Z,32.60
2018-06-14T20:22:24.108Z,32.60
2018-06-14T20:24:58.274Z,32.60
2018-06-14T20:27:32.083Z,32.50
2018-06-14T20:32:40.206Z,32.50
2018-06-14T20:35:14.134Z,32.50
2018-06-14T20:37:48.437Z,32.50
2018-06-14T20:40:22.482Z,32.40
2018-06-14T20:42:56.768Z,32.40
2018-06-14T20:48:03.315Z,32.40
2018-06-14T20:50:37.185Z,32.40
2018-06-14T20:53:10.921Z,32.40
2018-06-14T20:55:44.926Z,32.40
2018-06-14T20:58:20.123Z,32.40
2018-06-14T21:03:26.952Z,32.40
2018-06-14T21:06:01.203Z,32.40
2018-06-14T21:08:35.247Z,32.30
2018-06-14T21:11:09.824Z,32.40
2018-06-14T21:13:43.846Z,32.40
2018-06-14T21:16:18.067Z,32.30
2018-06-14T21:18:51.971Z,32.30
2018-06-14T21:21:28.379Z,32.30
2018-06-14T21:24:03.969Z,32.30
2018-06-14T21:26:38.183Z,32.30
2018-06-14T21:29:12.402Z,32.30
2018-06-14T21:34:21.213Z,32.30
2018-06-14T21:36:55.454Z,32.30
2018-06-14T21:39:29.377Z,32.30
2018-06-14T21:42:04.128Z,32.30
2018-06-14T21:44:38.161Z,32.20
2018-06-14T21:47:14.620Z,32.20
2018-06-14T21:49:49.371Z,32.20
2018-06-14T21:52:26.528Z,32.20
2018-06-14T21:55:00.292Z,32.20
2018-06-14T21:57:34.323Z,32.20
2018-06-14T22:00:09.409Z,32.20
2018-06-14T22:04:55.789Z,32.20
2018-06-14T22:07:29.922Z,32.20
2018-06-14T22:12:36.605Z,32.20
2018-06-14T22:22:48.840Z,32.10
2018-06-14T22:25:22.728Z,32.10
2018-06-14T22:27:56.228Z,32.10
2018-06-14T22:30:30.215Z,32.10
2018-06-14T22:33:13.237Z,32.10
2018-06-14T22:35:48.041Z,32.10
2018-06-14T22:38:22.223Z,32.10
2018-06-14T22:40:57.046Z,32.10
2018-06-14T22:43:31.121Z,32.10
2018-06-14T22:46:05.448Z,32.10
2018-06-14T22:48:39.632Z,32.10
2018-06-14T22:51:22.680Z,32.10
2018-06-14T22:53:56.656Z,32.10
2018-06-14T22:56:30.437Z,32.10
2018-06-14T22:59:04.405Z,32.10
2018-06-14T23:01:40.622Z,32.10
2018-06-14T23:04:16.773Z,32.10
2018-06-14T23:06:50.593Z,32.10
2018-06-14T23:10:32.498Z,32.10
2018-06-14T23:13:06.936Z,32.10
2018-06-14T23:15:41.101Z,32.00
2018-06-14T23:18:16.351Z,32.00
2018-06-14T23:23:22.884Z,32.00
2018-06-14T23:25:57.197Z,32.00
2018-06-14T23:28:32.107Z,32.00
2018-06-14T23:31:06.084Z,32.00
2018-06-14T23:33:40.230Z,32.00
2018-06-14T23:36:15.164Z,32.00
2018-06-14T23:38:48.843Z,32.00
2018-06-14T23:41:23.246Z,32.00
2018-06-14T23:43:57.394Z,32.00
2018-06-14T23:49:04.595Z,32.10
2018-06-14T23:56:43.846Z,32.10
2018-06-14T23:59:18.000Z,32.20
